In Rescue
 
Open Full Screen Window  High Contrast Mode
Wind Gusting 00 knots
08
April 02, 2020 11:30 PM EDT
Present Weather: Light Rain
Weather Information
Wind Direction
  010 °
Wind Speed
  08 kt (9 mph)
Wind Gust
  00 kt (0 mph)
Altimeter
29.70 in
Visibility
7 SM
Temperature
02° C
36° F
Dewpoint
02° C
36° F
Humidity
100%
1hr Rain Fall
00.01 in.
24hr Rain Fall
00.11 in.
Sky Condition
Overcast @ 700 ft
IFR

METAR K6B0 030330Z AUTO 01008KT 7SM -RA OVC007 02/02 A2970 RMK AO2 P0001 T00210015

FAA Disclaimer: The data displayed is for advisory purposes only and is not to be used for flight planning or operations.